PWSweather.com
Personal Weather Stations
Station Observations
KNYSYRAC2
Fairmount Hills, Fairmount, NY 13219

Fairmount HillsFairmount, NY 13219

Lat: 43.03602, Lon: -76.247151

Elevation: 663

Station Type: Ambient Weather WS-2080

http://weather.cerchia.com

High Low Average
Temperature 33.5°F0.8°F 4.2°F-15.4°F 9.4°F-12.6°F
Dew Point 28.3°F-2.1°F -17.9°F-27.7°F -8.7°F-22.6°F
Winds 6.1 mph WSW9.8 mph WSW Calm Calm 2.6 mph 4.2 mph
Wind Gusts 16.2 mph26.1 mph -- 8.0 mph12.9 mph
Humidity 81% 29% 44%
Pressure 30.63 in1037.30 in 30.06 in1017.90 in -
Precipitation 0.00 in0.00 in - -
Hour Temp Dew Point Humidity Winds Wind Gusts Pressure Precip Precip Rate Daily Precip Total
12:00 AM 4.9°F-15.1°C -10.8°F-23.8°C 47% 0.1 mph S0.2 kmh S 2.0 mph3.2 kmh 30.23 in1023.7 mb 0.00 in0.0 mm 0.00 in/hr0.0 mm/hr 0.00 in0.0 mm
12:15 AM 4.7°F-15.2°C -10.5°F-23.6°C 48% 0.5 mph SE0.8 kmh SE 2.0 mph3.2 kmh 30.24 in1024.0 mb 0.00 in0.0 mm 0.00 in/hr0.0 mm/hr 0.00 in0.0 mm
12:30 AM 4.7°F-15.2°C -10.1°F-23.4°C 49% 0.2 mph SE0.3 kmh SE 2.0 mph3.2 kmh 30.24 in1024.0 mb 0.00 in0.0 mm 0.00 in/hr0.0 mm/hr 0.00 in0.0 mm
12:45 AM 4.9°F-15.1°C -9.5°F-23.1°C 50% 0.1 mph S0.2 kmh S 2.0 mph3.2 kmh 30.24 in1024.0 mb 0.00 in0.0 mm 0.00 in/hr0.0 mm/hr 0.00 in0.0 mm
01:00 AM 5.1°F-14.9°C -9.4°F-23.0°C 50% Calm Calm 0.8 mph1.3 kmh 30.23 in1023.7 mb 0.00 in0.0 mm 0.00 in/hr0.0 mm/hr 0.00 in0.0 mm
01:15 AM 5.1°F-14.9°C -9.4°F-23.0°C 50% Calm Calm -- 30.24 in1024.0 mb 0.00 in0.0 mm 0.00 in/hr0.0 mm/hr 0.00 in0.0 mm
01:30 AM 5.1°F-14.9°C -9.4°F-23.0°C 50% 0.1 mph S0.2 kmh S 2.0 mph3.2 kmh 30.25 in1024.4 mb 0.00 in0.0 mm 0.00 in/hr0.0 mm/hr 0.00 in0.0 mm
01:45 AM 5.1°F-14.9°C -9.4°F-23.0°C 50% 0.2 mph SSW0.3 kmh SSW 2.8 mph4.5 kmh 30.26 in1024.7 mb 0.00 in0.0 mm 0.00 in/hr0.0 mm/hr 0.00 in0.0 mm
02:00 AM 5.3°F-14.8°C -9.6°F-23.1°C 49% Calm Calm 0.8 mph1.3 kmh 30.26 in1024.7 mb 0.00 in0.0 mm 0.00 in/hr0.0 mm/hr 0.00 in0.0 mm
02:15 AM 5.1°F-14.9°C -9.8°F-23.2°C 49% 0.1 mph S0.2 kmh S 2.0 mph3.2 kmh 30.27 in1025.1 mb 0.00 in0.0 mm 0.00 in/hr0.0 mm/hr 0.00 in0.0 mm
02:30 AM 4.7°F-15.2°C -10.1°F-23.4°C 49% 0.3 mph S0.5 kmh S 2.8 mph4.5 kmh 30.27 in1025.1 mb 0.00 in0.0 mm 0.00 in/hr0.0 mm/hr 0.00 in0.0 mm
02:45 AM 4.7°F-15.2°C -9.7°F-23.2°C 50% 0.3 mph SSE0.5 kmh SSE 2.8 mph4.5 kmh 30.27 in1025.1 mb 0.00 in0.0 mm 0.00 in/hr0.0 mm/hr 0.00 in0.0 mm
03:00 AM 4.5°F-15.3°C -9.9°F-23.3°C 50% 1.1 mph SSE1.8 kmh SSE 3.9 mph6.3 kmh 30.27 in1025.1 mb 0.00 in0.0 mm 0.00 in/hr0.0 mm/hr 0.00 in0.0 mm
03:15 AM 4.7°F-15.2°C -9.3°F-22.9°C 51% 1.0 mph SE1.6 kmh SE 3.9 mph6.3 kmh 30.27 in1025.1 mb 0.00 in0.0 mm 0.00 in/hr0.0 mm/hr 0.00 in0.0 mm
03:30 AM 4.7°F-15.2°C -9.3°F-22.9°C 51% 1.8 mph SE2.9 kmh SE 3.9 mph6.3 kmh 30.27 in1025.1 mb 0.00 in0.0 mm 0.00 in/hr0.0 mm/hr 0.00 in0.0 mm
03:45 AM 4.9°F-15.1°C -8.8°F-22.7°C 52% 1.7 mph SE2.7 kmh SE 3.9 mph6.3 kmh 30.27 in1025.1 mb 0.00 in0.0 mm 0.00 in/hr0.0 mm/hr 0.00 in0.0 mm
04:00 AM 4.9°F-15.1°C -8.8°F-22.7°C 52% 1.7 mph SE2.7 kmh SE 4.8 mph7.7 kmh 30.28 in1025.4 mb 0.00 in0.0 mm 0.00 in/hr0.0 mm/hr 0.00 in0.0 mm
04:15 AM 4.7°F-15.2°C -8.9°F-22.7°C 52% 1.4 mph SSE2.3 kmh SSE 6.7 mph10.8 kmh 30.29 in1025.7 mb 0.00 in0.0 mm 0.00 in/hr0.0 mm/hr 0.00 in0.0 mm
04:30 AM 4.4°F-15.3°C -9.3°F-22.9°C 52% 0.8 mph SSE1.3 kmh SSE 2.8 mph4.5 kmh 30.30 in1026.1 mb 0.00 in0.0 mm 0.00 in/hr0.0 mm/hr 0.00 in0.0 mm
04:45 AM 4.4°F-15.3°C -9.3°F-22.9°C 52% 1.8 mph SSE2.9 kmh SSE 5.6 mph9.0 kmh 30.30 in1026.1 mb 0.00 in0.0 mm 0.00 in/hr0.0 mm/hr 0.00 in0.0 mm
05:00 AM 4.5°F-15.3°C -8.7°F-22.6°C 53% 2.7 mph SSW4.3 kmh SSW 8.7 mph14.0 kmh 30.30 in1026.1 mb 0.00 in0.0 mm 0.00 in/hr0.0 mm/hr 0.00 in0.0 mm
05:15 AM 4.7°F-15.2°C -8.5°F-22.5°C 53% 2.5 mph SW4.0 kmh SW 7.5 mph12.1 kmh 30.30 in1026.1 mb 0.00 in0.0 mm 0.00 in/hr0.0 mm/hr 0.00 in0.0 mm
05:30 AM 4.7°F-15.2°C -8.2°F-22.3°C 54% 2.3 mph SSW3.7 kmh SSW 8.7 mph14.0 kmh 30.31 in1026.4 mb 0.00 in0.0 mm 0.00 in/hr0.0 mm/hr 0.00 in0.0 mm
05:45 AM 4.7°F-15.2°C -8.2°F-22.3°C 54% 2.5 mph SW4.0 kmh SW 8.7 mph14.0 kmh 30.31 in1026.4 mb 0.00 in0.0 mm 0.00 in/hr0.0 mm/hr 0.00 in0.0 mm
06:00 AM 4.7°F-15.2°C -8.2°F-22.3°C 54% 3.1 mph SW5.0 kmh SW 6.7 mph10.8 kmh 30.32 in1026.8 mb 0.00 in0.0 mm 0.00 in/hr0.0 mm/hr 0.00 in0.0 mm
06:15 AM 4.9°F-15.1°C -7.6°F-22.0°C 55% 3.1 mph S5.0 kmh S 7.5 mph12.1 kmh 30.32 in1026.8 mb 0.00 in0.0 mm 0.00 in/hr0.0 mm/hr 0.00 in0.0 mm
06:30 AM 4.7°F-15.2°C -7.8°F-22.1°C 55% 2.2 mph SSW3.5 kmh SSW 8.7 mph14.0 kmh 30.34 in1027.4 mb 0.00 in0.0 mm 0.00 in/hr0.0 mm/hr 0.00 in0.0 mm
06:45 AM 4.4°F-15.3°C -8.5°F-22.5°C 54% 0.8 mph SW1.3 kmh SW 4.8 mph7.7 kmh 30.34 in1027.4 mb 0.00 in0.0 mm 0.00 in/hr0.0 mm/hr 0.00 in0.0 mm
07:00 AM 4.2°F-15.4°C -8.7°F-22.6°C 54% 2.7 mph SSW4.3 kmh SSW 7.5 mph12.1 kmh 30.34 in1027.4 mb 0.00 in0.0 mm 0.00 in/hr0.0 mm/hr 0.00 in0.0 mm
07:15 AM 4.5°F-15.3°C -7.9°F-22.2°C 55% 2.9 mph SW4.7 kmh SW 8.7 mph14.0 kmh 30.36 in1028.1 mb 0.00 in0.0 mm 0.00 in/hr0.0 mm/hr 0.00 in0.0 mm
07:30 AM 4.9°F-15.1°C -7.6°F-22.0°C 55% 3.0 mph WSW4.8 kmh WSW 6.7 mph10.8 kmh 30.36 in1028.1 mb 0.00 in0.0 mm 0.00 in/hr0.0 mm/hr 0.00 in0.0 mm
07:45 AM 5.4°F-14.8°C -7.5°F-21.9°C 54% 4.4 mph SW7.1 kmh SW 9.5 mph15.3 kmh 30.37 in1028.4 mb 0.00 in0.0 mm 0.00 in/hr0.0 mm/hr 0.00 in0.0 mm
08:00 AM 5.8°F-14.6°C -7.5°F-21.9°C 53% 3.0 mph W4.8 kmh W 9.5 mph15.3 kmh 30.38 in1028.8 mb 0.00 in0.0 mm 0.00 in/hr0.0 mm/hr 0.00 in0.0 mm
08:15 AM 7.2°F-13.8°C -6.2°F-21.2°C 53% 3.0 mph W4.8 kmh W 9.5 mph15.3 kmh 30.39 in1029.1 mb 0.00 in0.0 mm 0.00 in/hr0.0 mm/hr 0.00 in0.0 mm
08:30 AM 8.3°F-13.2°C -5.6°F-20.9°C 52% 3.0 mph W4.8 kmh W 13.4 mph21.6 kmh 30.40 in1029.5 mb 0.00 in0.0 mm 0.00 in/hr0.0 mm/hr 0.00 in0.0 mm
08:45 AM 8.9°F-12.8°C -5.9°F-21.1°C 50% 3.9 mph WSW6.3 kmh WSW 11.5 mph18.5 kmh 30.41 in1029.8 mb 0.00 in0.0 mm 0.00 in/hr0.0 mm/hr 0.00 in0.0 mm
09:00 AM 9.2°F-12.7°C -6.0°F-21.1°C 49% 3.8 mph W6.1 kmh W 9.5 mph15.3 kmh 30.41 in1029.8 mb 0.00 in0.0 mm 0.00 in/hr0.0 mm/hr 0.00 in0.0 mm
09:15 AM 9.8°F-12.3°C -3.8°F-19.9°C 53% 3.9 mph NW6.3 kmh NW 9.5 mph15.3 kmh 30.42 in1030.1 mb 0.00 in0.0 mm 0.00 in/hr0.0 mm/hr 0.00 in0.0 mm
09:30 AM 11.0°F-11.7°C -3.1°F-19.5°C 52% 3.6 mph W5.8 kmh W 11.5 mph18.5 kmh 30.42 in1030.1 mb 0.00 in0.0 mm 0.00 in/hr0.0 mm/hr 0.00 in0.0 mm
09:45 AM 10.8°F-11.8°C -3.6°F-19.8°C 51% 4.4 mph W7.1 kmh W 10.3 mph16.6 kmh 30.42 in1030.1 mb 0.00 in0.0 mm 0.00 in/hr0.0 mm/hr 0.00 in0.0 mm
10:00 AM 11.6°F-11.3°C -3.8°F-19.9°C 49% 4.1 mph WNW6.6 kmh WNW 10.3 mph16.6 kmh 30.42 in1030.1 mb 0.00 in0.0 mm 0.00 in/hr0.0 mm/hr 0.00 in0.0 mm
10:15 AM 11.7°F-11.3°C -4.5°F-20.3°C 47% 3.8 mph SW6.1 kmh SW 13.4 mph21.6 kmh 30.42 in1030.1 mb 0.00 in0.0 mm 0.00 in/hr0.0 mm/hr 0.00 in0.0 mm
10:30 AM 12.1°F-11.1°C -4.6°F-20.3°C 46% 4.1 mph WNW6.6 kmh WNW 12.3 mph19.8 kmh 30.43 in1030.5 mb 0.00 in0.0 mm 0.00 in/hr0.0 mm/hr 0.00 in0.0 mm
10:45 AM 13.7°F-10.2°C -4.1°F-20.1°C 44% 4.5 mph WSW7.2 kmh WSW 16.2 mph26.1 kmh 30.43 in1030.5 mb 0.00 in0.0 mm 0.00 in/hr0.0 mm/hr 0.00 in0.0 mm
11:00 AM 14.4°F-9.8°C -4.4°F-20.2°C 42% 4.8 mph W7.7 kmh W 11.5 mph18.5 kmh 30.43 in1030.5 mb 0.00 in0.0 mm 0.00 in/hr0.0 mm/hr 0.00 in0.0 mm
11:15 AM 15.3°F-9.3°C -4.6°F-20.3°C 40% 4.4 mph WNW7.1 kmh WNW 15.1 mph24.3 kmh 30.44 in1030.8 mb 0.00 in0.0 mm 0.00 in/hr0.0 mm/hr 0.00 in0.0 mm
11:30 AM 14.8°F-9.6°C -5.6°F-20.9°C 39% 6.1 mph WSW9.8 kmh WSW 15.1 mph24.3 kmh 30.44 in1030.8 mb 0.00 in0.0 mm 0.00 in/hr0.0 mm/hr 0.00 in0.0 mm
11:45 AM 15.7°F-9.1°C -4.8°F-20.4°C 39% 4.9 mph W7.9 kmh W 14.3 mph23.0 kmh 30.45 in1031.2 mb 0.00 in0.0 mm 0.00 in/hr0.0 mm/hr 0.00 in0.0 mm
12:00 PM 15.5°F-9.2°C -5.5°F-20.8°C 38% 5.2 mph WSW8.4 kmh WSW 12.3 mph19.8 kmh 30.45 in1031.2 mb 0.00 in0.0 mm 0.00 in/hr0.0 mm/hr 0.00 in0.0 mm
12:15 PM 15.2°F-9.3°C -6.3°F-21.3°C 37% 3.8 mph NW6.1 kmh NW 14.3 mph23.0 kmh 30.45 in1031.2 mb 0.00 in0.0 mm 0.00 in/hr0.0 mm/hr 0.00 in0.0 mm
12:30 PM 14.6°F-9.7°C -6.3°F-21.3°C 38% 4.7 mph NW7.6 kmh NW 12.3 mph19.8 kmh 30.45 in1031.2 mb 0.00 in0.0 mm 0.00 in/hr0.0 mm/hr 0.00 in0.0 mm
12:45 PM 14.3°F-9.8°C -7.7°F-22.1°C 36% 4.3 mph NW6.9 kmh NW 10.3 mph16.6 kmh 30.45 in1031.2 mb 0.00 in0.0 mm 0.00 in/hr0.0 mm/hr 0.00 in0.0 mm
01:00 PM 14.6°F-9.7°C -7.4°F-21.9°C 36% 4.2 mph NW6.8 kmh NW 13.4 mph21.6 kmh 30.45 in1031.2 mb 0.00 in0.0 mm 0.00 in/hr0.0 mm/hr 0.00 in0.0 mm
01:15 PM 15.9°F-8.9°C -7.4°F-21.9°C 34% 4.4 mph WSW7.1 kmh WSW 11.5 mph18.5 kmh 30.45 in1031.2 mb 0.00 in0.0 mm 0.00 in/hr0.0 mm/hr 0.00 in0.0 mm
01:30 PM 16.1°F-8.8°C -7.9°F-22.2°C 33% 4.5 mph N7.2 kmh N 14.3 mph23.0 kmh 30.45 in1031.2 mb 0.00 in0.0 mm 0.00 in/hr0.0 mm/hr 0.00 in0.0 mm
01:45 PM 15.5°F-9.2°C -7.2°F-21.8°C 35% 4.9 mph N7.9 kmh N 11.5 mph18.5 kmh 30.45 in1031.2 mb 0.00 in0.0 mm 0.00 in/hr0.0 mm/hr 0.00 in0.0 mm
02:00 PM 14.4°F-9.8°C -4.9°F-20.5°C 41% 5.1 mph NW8.2 kmh NW 12.3 mph19.8 kmh 30.45 in1031.2 mb 0.00 in0.0 mm 0.00 in/hr0.0 mm/hr 0.00 in0.0 mm
02:15 PM 14.4°F-9.8°C -4.9°F-20.5°C 41% 4.1 mph NW6.6 kmh NW 8.7 mph14.0 kmh 30.46 in1031.5 mb 0.00 in0.0 mm 0.00 in/hr0.0 mm/hr 0.00 in0.0 mm
02:30 PM 15.5°F-9.2°C -4.9°F-20.5°C 39% 3.7 mph W6.0 kmh W 9.5 mph15.3 kmh 30.46 in1031.5 mb 0.00 in0.0 mm 0.00 in/hr0.0 mm/hr 0.00 in0.0 mm
02:45 PM 14.8°F-9.6°C -8.4°F-22.4°C 34% 4.0 mph WNW6.4 kmh WNW 9.5 mph15.3 kmh 30.47 in1031.8 mb 0.00 in0.0 mm 0.00 in/hr0.0 mm/hr 0.00 in0.0 mm
03:00 PM 15.0°F-9.4°C -8.2°F-22.3°C 34% 4.0 mph NW6.4 kmh NW 12.3 mph19.8 kmh 30.48 in1032.2 mb 0.00 in0.0 mm 0.00 in/hr0.0 mm/hr 0.00 in0.0 mm
03:15 PM 16.2°F-8.8°C -7.1°F-21.7°C 34% 5.1 mph NW8.2 kmh NW 13.4 mph21.6 kmh 30.49 in1032.5 mb 0.00 in0.0 mm 0.00 in/hr0.0 mm/hr 0.00 in0.0 mm
03:30 PM 15.5°F-9.2°C -7.2°F-21.8°C 35% 3.5 mph W5.6 kmh W 9.5 mph15.3 kmh 30.49 in1032.5 mb 0.00 in0.0 mm 0.00 in/hr0.0 mm/hr 0.00 in0.0 mm
03:45 PM 15.7°F-9.1°C -7.6°F-22.0°C 34% 3.6 mph W5.8 kmh W 10.3 mph16.6 kmh 30.49 in1032.5 mb 0.00 in0.0 mm 0.00 in/hr0.0 mm/hr 0.00 in0.0 mm
04:00 PM 14.3°F-9.8°C -8.3°F-22.4°C 35% 3.5 mph W5.6 kmh W 9.5 mph15.3 kmh 30.49 in1032.5 mb 0.00 in0.0 mm 0.00 in/hr0.0 mm/hr 0.00 in0.0 mm
04:15 PM 16.2°F-8.8°C -6.5°F-21.4°C 35% 2.2 mph WNW3.5 kmh WNW 5.6 mph9.0 kmh 30.49 in1032.5 mb 0.00 in0.0 mm 0.00 in/hr0.0 mm/hr 0.00 in0.0 mm
05:08 PM 33.5°F0.8°C 28.3°F-2.1°C 81% 2.0 mph N3.2 kmh N 3.9 mph6.3 kmh 30.06 in1017.9 mb 0.00 in0.0 mm 0.00 in/hr0.0 mm/hr 0.00 in0.0 mm
05:11 PM 33.2°F0.7°C 27.7°F-2.4°C 80% Calm Calm 0.8 mph1.3 kmh 30.06 in1017.9 mb 0.00 in0.0 mm 0.00 in/hr0.0 mm/hr 0.00 in0.0 mm
05:15 PM 14.4°F-9.8°C -11.9°F-24.4°C 29% 2.5 mph NW4.0 kmh NW 5.6 mph9.0 kmh 30.50 in1032.8 mb 0.00 in0.0 mm 0.00 in/hr0.0 mm/hr 0.00 in0.0 mm
05:38 PM 13.2°F-10.4°C -11.9°F-24.4°C 31% Calm Calm 2.0 mph3.2 kmh 30.52 in1033.5 mb 0.00 in0.0 mm 0.00 in/hr0.0 mm/hr 0.00 in0.0 mm
05:45 PM 12.5°F-10.8°C -11.7°F-24.3°C 32% 0.8 mph NW1.3 kmh NW 5.6 mph9.0 kmh 30.52 in1033.5 mb 0.00 in0.0 mm 0.00 in/hr0.0 mm/hr 0.00 in0.0 mm
06:00 PM 12.1°F-11.1°C -10.8°F-23.8°C 34% 1.0 mph WNW1.6 kmh WNW 3.9 mph6.3 kmh 30.53 in1033.9 mb 0.00 in0.0 mm 0.00 in/hr0.0 mm/hr 0.00 in0.0 mm
06:15 PM 11.7°F-11.3°C -10.0°F-23.3°C 36% 0.7 mph SW1.1 kmh SW 3.9 mph6.3 kmh 30.54 in1034.2 mb 0.00 in0.0 mm 0.00 in/hr0.0 mm/hr 0.00 in0.0 mm
06:30 PM 11.0°F-11.7°C -10.6°F-23.7°C 36% 1.8 mph W2.9 kmh W 7.5 mph12.1 kmh 30.54 in1034.2 mb 0.00 in0.0 mm 0.00 in/hr0.0 mm/hr 0.00 in0.0 mm
06:45 PM 10.7°F-11.8°C -12.1°F-24.5°C 34% 2.6 mph W4.2 kmh W 8.7 mph14.0 kmh 30.55 in1034.5 mb 0.00 in0.0 mm 0.00 in/hr0.0 mm/hr 0.00 in0.0 mm
07:00 PM 9.9°F-12.3°C -13.3°F-25.2°C 33% 0.1 mph SSW0.2 kmh SSW 2.8 mph4.5 kmh 30.55 in1034.5 mb 0.00 in0.0 mm 0.00 in/hr0.0 mm/hr 0.00 in0.0 mm
07:15 PM 8.9°F-12.8°C -16.8°F-27.1°C 29% 1.1 mph WSW1.8 kmh WSW 4.8 mph7.7 kmh 30.56 in1034.9 mb 0.00 in0.0 mm 0.00 in/hr0.0 mm/hr 0.00 in0.0 mm
07:30 PM 8.3°F-13.2°C -17.3°F-27.4°C 29% 0.5 mph SW0.8 kmh SW 4.8 mph7.7 kmh 30.57 in1035.2 mb 0.00 in0.0 mm 0.00 in/hr0.0 mm/hr 0.00 in0.0 mm
07:45 PM 7.6°F-13.6°C -17.9°F-27.7°C 29% 0.8 mph SW1.3 kmh SW 4.8 mph7.7 kmh 30.57 in1035.2 mb 0.00 in0.0 mm 0.00 in/hr0.0 mm/hr 0.00 in0.0 mm
08:00 PM 7.4°F-13.7°C -17.4°F-27.4°C 30% 2.7 mph WSW4.3 kmh WSW 7.5 mph12.1 kmh 30.57 in1035.2 mb 0.00 in0.0 mm 0.00 in/hr0.0 mm/hr 0.00 in0.0 mm
08:15 PM 7.4°F-13.7°C -17.4°F-27.4°C 30% 2.9 mph W4.7 kmh W 10.3 mph16.6 kmh 30.58 in1035.6 mb 0.00 in0.0 mm 0.00 in/hr0.0 mm/hr 0.00 in0.0 mm
08:30 PM 6.9°F-13.9°C -17.2°F-27.3°C 31% 3.1 mph W5.0 kmh W 10.3 mph16.6 kmh 30.59 in1035.9 mb 0.00 in0.0 mm 0.00 in/hr0.0 mm/hr 0.00 in0.0 mm
08:45 PM 6.9°F-13.9°C -16.6°F-27.0°C 32% 2.9 mph WSW4.7 kmh WSW 9.5 mph15.3 kmh 30.60 in1036.2 mb 0.00 in0.0 mm 0.00 in/hr0.0 mm/hr 0.00 in0.0 mm
09:00 PM 6.5°F-14.2°C -16.3°F-26.8°C 33% 2.2 mph WSW3.5 kmh WSW 9.5 mph15.3 kmh 30.60 in1036.2 mb 0.00 in0.0 mm 0.00 in/hr0.0 mm/hr 0.00 in0.0 mm
09:15 PM 6.2°F-14.3°C -16.6°F-27.0°C 33% 2.4 mph WSW3.9 kmh WSW 7.5 mph12.1 kmh 30.60 in1036.2 mb 0.00 in0.0 mm 0.00 in/hr0.0 mm/hr 0.00 in0.0 mm
09:30 PM 6.0°F-14.4°C -16.2°F-26.8°C 34% 2.6 mph WSW4.2 kmh WSW 8.7 mph14.0 kmh 30.61 in1036.6 mb 0.00 in0.0 mm 0.00 in/hr0.0 mm/hr 0.00 in0.0 mm
09:45 PM 5.8°F-14.6°C -16.4°F-26.9°C 34% 2.7 mph W4.3 kmh W 7.5 mph12.1 kmh 30.61 in1036.6 mb 0.00 in0.0 mm 0.00 in/hr0.0 mm/hr 0.00 in0.0 mm
10:00 PM 5.8°F-14.6°C -15.8°F-26.6°C 35% 4.4 mph WSW7.1 kmh WSW 12.3 mph19.8 kmh 30.61 in1036.6 mb 0.00 in0.0 mm 0.00 in/hr0.0 mm/hr 0.00 in0.0 mm
10:15 PM 6.2°F-14.3°C -14.4°F-25.8°C 37% 3.7 mph W6.0 kmh W 9.5 mph15.3 kmh 30.62 in1036.9 mb 0.00 in0.0 mm 0.00 in/hr0.0 mm/hr 0.00 in0.0 mm
10:30 PM 6.0°F-14.4°C -14.0°F-25.6°C 38% 4.1 mph SW6.6 kmh SW 12.3 mph19.8 kmh 30.62 in1036.9 mb 0.00 in0.0 mm 0.00 in/hr0.0 mm/hr 0.00 in0.0 mm
10:45 PM 6.0°F-14.4°C -13.5°F-25.3°C 39% 2.4 mph WSW3.9 kmh WSW 7.5 mph12.1 kmh 30.62 in1036.9 mb 0.00 in0.0 mm 0.00 in/hr0.0 mm/hr 0.00 in0.0 mm
11:00 PM 5.8°F-14.6°C -13.7°F-25.4°C 39% 3.0 mph WSW4.8 kmh WSW 11.5 mph18.5 kmh 30.63 in1037.3 mb 0.00 in0.0 mm 0.00 in/hr0.0 mm/hr 0.00 in0.0 mm
11:15 PM 5.6°F-14.7°C -13.4°F-25.2°C 40% 3.3 mph W5.3 kmh W 9.5 mph15.3 kmh 30.63 in1037.3 mb 0.00 in0.0 mm 0.00 in/hr0.0 mm/hr 0.00 in0.0 mm
11:30 PM 5.6°F-14.7°C -13.4°F-25.2°C 40% 3.8 mph W6.1 kmh W 10.3 mph16.6 kmh 30.63 in1037.3 mb 0.00 in0.0 mm 0.00 in/hr0.0 mm/hr 0.00 in0.0 mm
11:45 PM 5.8°F-14.6°C -13.7°F-25.4°C 39% 4.3 mph SSW6.9 kmh SSW 15.1 mph24.3 kmh 30.63 in1037.3 mb 0.00 in0.0 mm 0.00 in/hr0.0 mm/hr 0.00 in0.0 mm